Terminal Aerodrome Forecast
Issued by NWS Upton, NY

Home | Current Version | Previous Version | Text Only | Print | Product List | Glossary On
Versions: 1 2 3 4 5 6 7 8 9 10 11 12 13 14 15 16 17 18 19 20 21 22 23 24 25 26 27 28 29 30 31 32 33 34
423
FTUS41 KOKX 280230 AAA
TAFBDR
TAF AMD
KBDR 280230Z 2803/2824 19008KT P6SM FEW070
     FM280600 VRB04KT P6SM FEW250
     FM281400 17006KT P6SM BKN250
     FM281800 19008KT P6SM FEW060 BKN200=

USA.gov is the U.S. government's official web portal to all federal, state and local government web resources and services.